Time;durP1;ratioP1;P1;durP2;ratioP2;P2;SDS_P1;SDS_P2;PMS_P1;PMS_P2;Temp;Humidity;BMP_temperature;BMP_pressure;BME280_temperature;BME280_humidity;BME280_pressure;Samples;Min_cycle;Max_cycle;Signal;HPM_P1;HPM_P2
2023/10/21 00:02:04;;;;;;;0.60;0.25;;;19.50;75.60;;;;;;5059365;28;29717;-76
2023/10/21 00:04:30;;;;;;;0.75;0.30;;;19.50;75.50;;;;;;5062607;28;20041;-76
2023/10/21 00:06:56;;;;;;;0.50;0.30;;;19.50;76.30;;;;;;5063409;28;20036;-76
2023/10/21 00:09:21;;;;;;;0.82;0.43;;;19.50;75.50;;;;;;5062978;28;20051;-76
2023/10/21 00:11:47;;;;;;;0.88;0.47;;;19.50;75.50;;;;;;5061749;28;20040;-76
2023/10/21 00:14:12;;;;;;;0.60;0.20;;;19.50;75.30;;;;;;5060673;28;20032;-76
2023/10/21 00:16:38;;;;;;;0.30;0.20;;;19.50;75.30;;;;;;5063075;28;20037;-76
2023/10/21 00:19:04;;;;;;;1.98;0.30;;;19.50;75.20;;;;;;5058276;28;20131;-75
2023/10/21 00:21:30;;;;;;;1.05;0.30;;;19.50;75.20;;;;;;5060364;28;20093;-76
2023/10/21 00:23:55;;;;;;;1.17;0.30;;;19.50;75.10;;;;;;5060616;28;20481;-76
2023/10/21 00:26:21;;;;;;;0.55;0.22;;;19.50;75.00;;;;;;5062671;28;20485;-76
2023/10/21 00:28:47;;;;;;;0.38;0.38;;;19.50;75.10;;;;;;5059956;28;20722;-76
2023/10/21 00:31:13;;;;;;;0.70;0.40;;;19.50;75.10;;;;;;5061161;28;20033;-76
2023/10/21 00:33:38;;;;;;;0.60;0.40;;;19.50;74.90;;;;;;5058481;28;20486;-76
2023/10/21 00:36:04;;;;;;;1.50;0.40;;;19.50;74.90;;;;;;5060908;28;20033;-76
2023/10/21 00:38:29;;;;;;;1.10;0.38;;;19.50;74.80;;;;;;5062474;28;20086;-76
2023/10/21 00:40:56;;;;;;;0.45;0.40;;;19.40;75.50;;;;;;5060134;28;20040;-76
2023/10/21 00:43:38;;;;;;;0.63;0.40;;;19.50;74.70;;;;;;5060595;28;20028;-76
2023/10/21 00:46:26;;;;;;;0.43;0.40;;;19.50;74.70;;;;;;5061159;28;20056;-76
2023/10/21 00:48:51;;;;;;;1.42;0.30;;;19.50;74.70;;;;;;5059363;28;20028;-76
2023/10/21 00:51:17;;;;;;;0.65;0.20;;;19.50;74.70;;;;;;5045500;28;20043;-76
2023/10/21 00:53:43;;;;;;;0.88;0.38;;;19.50;74.70;;;;;;5074457;28;20170;-76
2023/10/21 00:56:08;;;;;;;0.50;0.20;;;19.50;74.70;;;;;;5093044;28;20039;-76
2023/10/21 00:58:35;;;;;;;1.05;0.30;;;19.40;74.70;;;;;;5062771;28;20040;-76
2023/10/21 01:01:06;;;;;;;0.45;0.30;;;19.40;74.60;;;;;;5059114;28;20041;-76
2023/10/21 01:03:31;;;;;;;0.47;0.32;;;19.40;74.60;;;;;;5060735;28;20043;-76
2023/10/21 01:05:57;;;;;;;0.52;0.25;;;19.40;74.50;;;;;;5091825;28;20044;-76
2023/10/21 01:08:22;;;;;;;0.30;0.20;;;19.40;74.60;;;;;;5077906;28;20079;-76
2023/10/21 01:10:48;;;;;;;2.65;0.40;;;19.50;74.60;;;;;;5061374;28;20586;-76
2023/10/21 01:13:13;;;;;;;1.02;0.30;;;19.40;74.50;;;;;;5061693;28;20037;-76
2023/10/21 01:15:39;;;;;;;0.80;0.43;;;19.40;74.50;;;;;;5058783;28;20041;-76
2023/10/21 01:18:08;;;;;;;0.17;0.17;;;19.50;74.60;;;;;;5060706;28;20071;-76
2023/10/21 01:20:35;;;;;;;0.30;0.30;;;19.40;74.50;;;;;;5061227;28;20029;-76
2023/10/21 01:23:00;;;;;;;0.30;0.30;;;19.40;74.30;;;;;;5061597;28;20127;-76
2023/10/21 01:25:27;;;;;;;0.40;0.38;;;19.40;74.30;;;;;;5056201;28;20036;-76
2023/10/21 01:27:56;;;;;;;0.55;0.40;;;19.40;74.20;;;;;;5059914;28;20043;-76
2023/10/21 01:30:21;;;;;;;0.60;0.20;;;19.40;75.00;;;;;;5063944;28;20032;-76
2023/10/21 01:32:48;;;;;;;1.55;0.28;;;19.40;74.20;;;;;;5062707;28;20052;-76
2023/10/21 01:35:14;;;;;;;0.40;0.30;;;19.40;74.20;;;;;;5064052;28;20661;-76
2023/10/21 01:37:40;;;;;;;0.20;0.20;;;19.40;74.30;;;;;;5064016;28;20421;-76
2023/10/21 01:40:06;;;;;;;0.93;0.50;;;19.40;74.20;;;;;;5064480;28;20482;-76
2023/10/21 01:42:34;;;;;;;0.57;0.43;;;19.40;74.20;;;;;;5064809;28;20053;-76
2023/10/21 01:45:00;;;;;;;1.13;0.40;;;19.40;74.30;;;;;;5066336;28;20076;-76
2023/10/21 01:47:26;;;;;;;0.55;0.32;;;19.40;74.30;;;;;;5066716;28;20081;-76
2023/10/21 01:49:53;;;;;;;0.47;0.38;;;19.40;74.30;;;;;;5063275;28;20140;-76
2023/10/21 01:52:19;;;;;;;0.50;0.47;;;19.40;74.20;;;;;;5065107;28;20029;-76
2023/10/21 01:54:44;;;;;;;1.17;0.30;;;19.40;74.20;;;;;;5064748;28;20402;-76
2023/10/21 01:57:10;;;;;;;0.68;0.68;;;19.40;74.20;;;;;;5097216;28;20112;-76
2023/10/21 01:59:41;;;;;;;0.28;0.10;;;19.40;75.00;;;;;;5065206;28;20055;-76
2023/10/21 02:02:07;;;;;;;0.57;0.20;;;19.40;74.20;;;;;;5063263;28;20047;-76
2023/10/21 02:04:33;;;;;;;0.80;0.40;;;19.40;74.20;;;;;;5064554;28;20502;-76
2023/10/21 02:06:58;;;;;;;0.40;0.40;;;19.40;74.10;;;;;;5064411;28;20406;-76
2023/10/21 02:09:24;;;;;;;0.70;0.30;;;19.40;74.00;;;;;;5062442;28;20090;-76
2023/10/21 02:11:49;;;;;;;0.65;0.50;;;19.40;74.00;;;;;;5065374;28;20032;-76
2023/10/21 02:14:15;;;;;;;0.30;0.30;;;19.40;74.00;;;;;;5077452;28;20040;-76
2023/10/21 02:16:41;;;;;;;0.98;0.40;;;19.40;74.00;;;;;;5063742;28;20123;-76
2023/10/21 02:19:06;;;;;;;0.38;0.25;;;19.40;73.90;;;;;;5061788;28;20028;-76
2023/10/21 02:21:32;;;;;;;0.30;0.25;;;19.40;73.80;;;;;;5062840;28;20541;-76
2023/10/21 02:23:57;;;;;;;0.30;0.10;;;19.40;73.80;;;;;;5062677;28;20052;-76
2023/10/21 02:26:23;;;;;;;0.30;0.30;;;19.40;73.80;;;;;;5063198;28;20397;-76
2023/10/21 02:28:48;;;;;;;0.43;0.30;;;19.40;73.80;;;;;;5060775;28;20041;-76
2023/10/21 02:31:14;;;;;;;0.98;0.30;;;19.30;73.90;;;;;;5094146;28;20127;-76
2023/10/21 02:33:40;;;;;;;0.28;0.20;;;19.40;73.90;;;;;;5057335;28;20052;-76
2023/10/21 02:36:05;;;;;;;1.38;0.45;;;19.30;73.80;;;;;;5061493;28;20036;-76
2023/10/21 02:38:31;;;;;;;0.13;0.10;;;19.30;73.80;;;;;;5066416;28;20032;-76
2023/10/21 02:40:56;;;;;;;0.30;0.20;;;19.40;74.00;;;;;;5060092;28;20036;-76
2023/10/21 02:43:22;;;;;;;0.32;0.30;;;19.30;73.80;;;;;;5065006;28;20485;-76
2023/10/21 02:45:48;;;;;;;1.30;0.43;;;19.30;73.90;;;;;;5065117;28;20168;-76
2023/10/21 02:48:14;;;;;;;0.65;0.35;;;19.30;73.80;;;;;;5063390;28;20103;-76
2023/10/21 02:50:40;;;;;;;0.47;0.30;;;19.30;73.80;;;;;;5064391;28;20051;-76
2023/10/21 02:53:05;;;;;;;0.30;0.22;;;19.30;73.70;;;;;;5067495;28;20040;-76
2023/10/21 02:55:31;;;;;;;0.47;0.22;;;19.30;73.70;;;;;;5061889;28;20045;-76
2023/10/21 02:57:56;;;;;;;0.30;0.20;;;19.30;73.70;;;;;;5061987;28;20148;-76
2023/10/21 03:00:22;;;;;;;0.50;0.38;;;19.30;74.50;;;;;;5064113;28;20045;-76
2023/10/21 03:02:51;;;;;;;0.73;0.30;;;19.40;73.70;;;;;;5061137;28;20499;-76
2023/10/21 03:05:17;;;;;;;0.50;0.20;;;19.30;73.60;;;;;;5063840;28;20102;-76
2023/10/21 03:07:43;;;;;;;0.25;0.20;;;19.30;73.60;;;;;;5064881;28;22096;-76
2023/10/21 03:10:12;;;;;;;1.17;0.38;;;19.30;73.60;;;;;;5064170;28;20060;-76
2023/10/21 03:12:37;;;;;;;0.40;0.30;;;19.30;73.60;;;;;;5063000;28;20075;-76
2023/10/21 03:15:06;;;;;;;0.85;0.38;;;19.30;73.60;;;;;;5061060;28;20060;-76
2023/10/21 03:17:32;;;;;;;0.85;0.30;;;19.30;73.60;;;;;;5061931;28;20041;-76
2023/10/21 03:19:58;;;;;;;0.50;0.28;;;19.30;73.50;;;;;;5060840;28;20050;-76
2023/10/21 03:22:25;;;;;;;0.30;0.20;;;19.30;73.60;;;;;;5061094;28;20756;-76
2023/10/21 03:24:51;;;;;;;0.30;0.28;;;19.30;73.50;;;;;;5059988;28;20106;-76
2023/10/21 03:27:16;;;;;;;0.40;0.30;;;19.30;73.50;;;;;;5059691;28;20515;-76
2023/10/21 03:29:42;;;;;;;0.90;0.45;;;19.30;73.40;;;;;;5058186;28;20044;-76
2023/10/21 03:32:09;;;;;;;0.45;0.22;;;19.30;73.60;;;;;;5059696;28;20113;-76
2023/10/21 03:34:35;;;;;;;0.40;0.20;;;19.30;73.60;;;;;;5057170;28;20044;-76
2023/10/21 03:37:01;;;;;;;0.30;0.20;;;19.30;73.40;;;;;;5063628;28;20051;-76
2023/10/21 03:39:26;;;;;;;0.20;0.20;;;19.30;73.30;;;;;;5061349;28;20501;-76
2023/10/21 03:41:52;;;;;;;0.57;0.40;;;19.30;73.40;;;;;;5064220;28;20433;-76
2023/10/21 03:44:18;;;;;;;0.50;0.30;;;19.30;73.50;;;;;;5062842;28;20071;-76
2023/10/21 03:46:44;;;;;;;0.28;0.13;;;19.30;73.40;;;;;;5063064;28;20680;-76
2023/10/21 03:49:09;;;;;;;0.50;0.30;;;19.30;73.50;;;;;;5060690;28;20036;-76
2023/10/21 03:51:35;;;;;;;0.47;0.38;;;19.30;73.30;;;;;;5064030;28;20067;-76
2023/10/21 03:54:01;;;;;;;1.38;0.40;;;19.30;73.30;;;;;;5092792;28;20040;-76
2023/10/21 03:56:27;;;;;;;1.15;0.20;;;19.30;73.30;;;;;;5064859;28;20040;-76
2023/10/21 03:58:52;;;;;;;0.43;0.30;;;19.30;73.30;;;;;;5062708;28;20051;-76
2023/10/21 04:01:20;;;;;;;0.22;0.20;;;19.30;73.30;;;;;;5060113;28;20483;-76
2023/10/21 04:03:46;;;;;;;0.50;0.40;;;19.30;73.30;;;;;;5063004;28;20040;-76
2023/10/21 04:06:13;;;;;;;0.43;0.32;;;19.30;73.30;;;;;;5061048;28;21019;-76
2023/10/21 04:08:39;;;;;;;0.47;0.30;;;19.30;73.40;;;;;;5062391;28;20036;-76
2023/10/21 04:11:05;;;;;;;0.32;0.28;;;19.30;73.30;;;;;;5077877;28;20105;-76
2023/10/21 04:13:31;;;;;;;0.60;0.30;;;19.30;73.30;;;;;;5061233;28;20132;-76
2023/10/21 04:15:57;;;;;;;0.40;0.30;;;19.30;73.20;;;;;;5064230;28;20119;-76
2023/10/21 04:18:23;;;;;;;1.60;0.38;;;19.30;73.30;;;;;;5061695;28;20033;-76
2023/10/21 04:20:48;;;;;;;0.50;0.40;;;19.30;73.20;;;;;;5064097;28;20413;-76
2023/10/21 04:23:14;;;;;;;0.52;0.20;;;19.30;73.20;;;;;;5042115;28;20032;-76
2023/10/21 04:25:40;;;;;;;0.32;0.30;;;19.30;73.90;;;;;;5060386;28;20044;-76
2023/10/21 04:28:05;;;;;;;0.50;0.40;;;19.30;73.20;;;;;;5058886;28;20505;-76
2023/10/21 04:30:31;;;;;;;0.60;0.35;;;19.30;73.20;;;;;;5062304;28;20037;-76
2023/10/21 04:32:57;;;;;;;0.40;0.20;;;19.30;73.20;;;;;;5062571;28;20029;-76
2023/10/21 04:35:22;;;;;;;0.30;0.28;;;19.30;73.20;;;;;;5060504;28;20441;-76
2023/10/21 04:37:48;;;;;;;0.70;0.40;;;19.20;73.00;;;;;;5088887;28;20063;-76
2023/10/21 04:40:13;;;;;;;0.47;0.40;;;19.30;73.20;;;;;;5061686;28;20056;-76
2023/10/21 04:42:39;;;;;;;0.32;0.32;;;19.20;73.10;;;;;;5060103;28;20048;-76
2023/10/21 04:45:07;;;;;;;0.52;0.40;;;19.20;73.00;;;;;;5059062;28;20040;-76
2023/10/21 04:47:32;;;;;;;0.40;0.35;;;19.20;73.00;;;;;;5061389;28;20048;-76
2023/10/21 04:49:58;;;;;;;0.40;0.40;;;19.20;73.90;;;;;;5058669;28;20456;-76
2023/10/21 04:52:23;;;;;;;0.50;0.20;;;19.30;73.10;;;;;;5056876;28;20040;-76
2023/10/21 04:54:50;;;;;;;0.45;0.30;;;19.20;73.00;;;;;;5092072;28;20042;-76
2023/10/21 04:57:16;;;;;;;0.40;0.20;;;19.30;73.20;;;;;;5058545;28;20052;-76
2023/10/21 04:59:42;;;;;;;0.20;0.20;;;19.20;73.00;;;;;;5064011;28;20106;-76
2023/10/21 05:02:07;;;;;;;0.40;0.30;;;19.20;73.00;;;;;;5059585;28;20504;-76
2023/10/21 05:04:34;;;;;;;0.73;0.10;;;19.20;73.10;;;;;;5061466;28;20044;-76
2023/10/21 05:06:59;;;;;;;0.68;0.38;;;19.20;73.00;;;;;;5061185;28;20090;-75
2023/10/21 05:09:25;;;;;;;0.40;0.20;;;19.20;73.00;;;;;;5097150;28;20048;-76
2023/10/21 05:11:50;;;;;;;0.35;0.20;;;19.20;73.00;;;;;;5065153;28;20032;-76
2023/10/21 05:14:16;;;;;;;0.47;0.32;;;19.20;73.00;;;;;;5064488;28;20032;-76
2023/10/21 05:16:42;;;;;;;0.30;0.25;;;19.20;73.10;;;;;;5065129;28;20051;-75
2023/10/21 05:19:07;;;;;;;0.50;0.30;;;19.20;73.10;;;;;;5061238;28;20522;-75
2023/10/21 05:21:33;;;;;;;0.20;0.10;;;19.20;73.10;;;;;;5065470;28;20462;-76
2023/10/21 05:23:58;;;;;;;0.40;0.40;;;19.20;73.10;;;;;;5065007;28;20037;-76
2023/10/21 05:26:26;;;;;;;0.93;0.57;;;19.20;73.10;;;;;;5063075;28;20041;-76
2023/10/21 05:28:51;;;;;;;1.05;0.57;;;19.20;73.10;;;;;;5063140;28;20055;-76
2023/10/21 05:31:17;;;;;;;1.85;0.30;;;19.20;73.00;;;;;;5065700;28;22142;-76
2023/10/21 05:33:44;;;;;;;0.32;0.32;;;19.20;73.00;;;;;;5064973;28;20136;-76
2023/10/21 05:36:10;;;;;;;0.40;0.30;;;19.20;73.00;;;;;;5062958;28;20033;-76
2023/10/21 05:38:35;;;;;;;0.30;0.30;;;19.20;73.00;;;;;;5064150;28;20047;-76
2023/10/21 05:41:01;;;;;;;0.30;0.30;;;19.20;72.90;;;;;;5062918;28;20036;-76
2023/10/21 05:43:27;;;;;;;1.58;0.55;;;19.20;72.80;;;;;;5061221;28;20597;-76
2023/10/21 05:45:53;;;;;;;0.40;0.30;;;19.20;72.90;;;;;;5061477;28;20044;-76
2023/10/21 05:48:19;;;;;;;0.75;0.20;;;19.20;72.90;;;;;;5097623;28;20062;-76
2023/10/21 05:50:44;;;;;;;0.43;0.20;;;19.20;73.00;;;;;;5067869;28;20040;-76
2023/10/21 05:53:10;;;;;;;0.45;0.45;;;19.20;72.90;;;;;;5092170;28;20075;-77
2023/10/21 05:55:43;;;;;;;0.38;0.17;;;19.20;72.90;;;;;;5062825;28;20535;-77
2023/10/21 05:58:09;;;;;;;0.38;0.38;;;19.20;72.80;;;;;;5062079;28;20040;-77
2023/10/21 06:00:35;;;;;;;0.93;0.40;;;19.20;73.30;;;;;;5063069;28;20045;-77
2023/10/21 06:03:01;;;;;;;0.40;0.25;;;19.20;73.10;;;;;;5063605;28;20052;-82
2023/10/21 06:05:27;;;;;;;0.40;0.40;;;19.20;73.10;;;;;;5065496;28;20047;-82
2023/10/21 06:07:53;;;;;;;0.20;0.20;;;19.20;73.20;;;;;;5063621;28;20032;-82
2023/10/21 06:10:20;;;;;;;0.75;0.50;;;19.20;73.30;;;;;;5061551;28;20040;-80
2023/10/21 06:12:46;;;;;;;0.40;0.20;;;19.20;73.80;;;;;;5047533;28;20051;-80
2023/10/21 06:15:11;;;;;;;0.47;0.30;;;19.30;73.30;;;;;;5046312;28;20036;-81
2023/10/21 06:17:37;;;;;;;3.08;0.57;;;19.30;73.30;;;;;;5067667;28;20052;-80
2023/10/21 06:20:03;;;;;;;0.43;0.30;;;19.30;74.00;;;;;;5045289;28;20044;-82
2023/10/21 06:22:29;;;;;;;1.58;0.28;;;19.30;73.90;;;;;;5063479;28;20083;-84
2023/10/21 06:24:54;;;;;;;0.43;0.40;;;19.30;73.90;;;;;;5062742;28;20131;-82
2023/10/21 06:27:21;;;;;;;0.60;0.40;;;19.20;73.90;;;;;;4710150;28;9999777;-83
2023/10/21 06:29:47;;;;;;;0.55;0.30;;;19.30;73.80;;;;;;5063465;28;20042;-83
2023/10/21 06:32:13;;;;;;;0.20;0.20;;;19.30;74.10;;;;;;5056598;28;20045;-82
2023/10/21 06:34:39;;;;;;;1.13;0.40;;;19.30;74.40;;;;;;5059953;28;20124;-83
2023/10/21 06:37:05;;;;;;;0.65;0.40;;;19.20;74.40;;;;;;5060361;28;20115;-83
2023/10/21 06:39:31;;;;;;;0.80;0.47;;;19.30;74.40;;;;;;5058929;28;20139;-83
2023/10/21 06:41:57;;;;;;;0.80;0.45;;;19.30;74.40;;;;;;5062175;28;20075;-83
2023/10/21 06:44:23;;;;;;;0.40;0.20;;;19.30;74.60;;;;;;5059891;28;20044;-83
2023/10/21 06:46:49;;;;;;;0.45;0.40;;;19.30;74.80;;;;;;5060190;28;20041;-82
2023/10/21 06:49:14;;;;;;;0.57;0.35;;;19.30;74.60;;;;;;5061558;28;20040;-82
2023/10/21 06:51:40;;;;;;;2.15;0.30;;;19.30;74.90;;;;;;5059751;28;20524;-84
2023/10/21 06:54:06;;;;;;;0.55;0.43;;;19.30;75.20;;;;;;5066272;28;20131;-84
2023/10/21 06:56:32;;;;;;;0.38;0.28;;;19.30;75.70;;;;;;5092610;28;20671;-82
2023/10/21 06:58:58;;;;;;;0.65;0.35;;;19.30;75.90;;;;;;5061984;28;20071;-83
2023/10/21 07:01:23;;;;;;;0.43;0.30;;;19.30;75.50;;;;;;5061487;28;20578;-82
2023/10/21 07:03:49;;;;;;;1.15;0.28;;;19.20;75.80;;;;;;5061824;28;20032;-82
2023/10/21 07:06:16;;;;;;;0.60;0.22;;;19.20;75.90;;;;;;5062686;28;21259;-80
2023/10/21 07:08:42;;;;;;;0.52;0.50;;;19.20;76.10;;;;;;5067372;28;20044;-81
2023/10/21 07:11:07;;;;;;;0.82;0.40;;;19.20;75.80;;;;;;5065116;28;20037;-83
2023/10/21 07:13:33;;;;;;;0.50;0.30;;;19.30;75.70;;;;;;5062858;28;21485;-82
2023/10/21 07:16:10;;;;;;;0.55;0.32;;;19.20;75.80;;;;;;5063011;28;20040;-81
2023/10/21 07:18:38;;;;;;;0.52;0.30;;;19.20;76.00;;;;;;5062542;28;20059;-81
2023/10/21 07:21:04;;;;;;;1.50;0.35;;;19.30;75.90;;;;;;5062564;28;20137;-80
2023/10/21 07:23:33;;;;;;;0.82;0.40;;;19.20;76.10;;;;;;5062290;28;20048;-82
2023/10/21 07:25:59;;;;;;;0.47;0.30;;;19.30;76.10;;;;;;5063336;28;20040;-81
2023/10/21 07:28:25;;;;;;;1.60;0.30;;;19.30;76.00;;;;;;5064571;28;20409;-81
2023/10/21 07:30:54;;;;;;;0.70;0.40;;;19.30;76.20;;;;;;5065169;28;20036;-81
2023/10/21 07:33:20;;;;;;;0.65;0.40;;;19.30;77.10;;;;;;5061169;28;20135;-81
2023/10/21 07:35:51;;;;;;;0.90;0.30;;;19.30;76.10;;;;;;5066465;28;20056;-82
2023/10/21 07:38:18;;;;;;;0.80;0.40;;;19.30;76.60;;;;;;5063124;28;20040;-82
2023/10/21 07:40:44;;;;;;;1.83;0.28;;;19.30;75.80;;;;;;5063754;28;20043;-82
2023/10/21 07:43:09;;;;;;;0.30;0.30;;;19.30;76.30;;;;;;5065393;28;20040;-80
2023/10/21 07:45:35;;;;;;;1.02;0.50;;;19.30;76.40;;;;;;5057183;28;20038;-82
2023/10/21 07:48:02;;;;;;;1.65;0.50;;;19.30;76.70;;;;;;5060565;28;20055;-82
2023/10/21 07:50:28;;;;;;;0.47;0.38;;;19.20;76.60;;;;;;5062098;28;20045;-82
2023/10/21 07:52:53;;;;;;;0.55;0.38;;;19.30;76.70;;;;;;5060823;28;20142;-82
2023/10/21 07:55:19;;;;;;;0.47;0.40;;;19.20;76.80;;;;;;5061338;28;20123;-82
2023/10/21 07:57:45;;;;;;;0.30;0.30;;;19.20;77.60;;;;;;5061704;28;20055;-81
2023/10/21 08:00:13;;;;;;;0.40;0.38;;;19.20;76.90;;;;;;5064489;28;20156;-79
2023/10/21 08:02:39;;;;;;;0.60;0.40;;;19.30;76.80;;;;;;5068149;28;20055;-82
2023/10/21 08:05:07;;;;;;;0.40;0.40;;;19.20;77.00;;;;;;5063741;28;20040;-82
2023/10/21 08:07:33;;;;;;;0.60;0.50;;;19.20;77.10;;;;;;5064189;28;20056;-83
2023/10/21 08:09:58;;;;;;;0.80;0.40;;;19.20;76.60;;;;;;5061354;28;20094;-82
2023/10/21 08:12:24;;;;;;;0.60;0.55;;;19.20;76.60;;;;;;5062524;28;20056;-82
2023/10/21 08:14:49;;;;;;;0.90;0.40;;;19.20;76.80;;;;;;5065825;28;20059;-82
2023/10/21 08:17:15;;;;;;;0.60;0.32;;;19.20;77.80;;;;;;5061811;28;20041;-80
2023/10/21 08:19:41;;;;;;;0.95;0.47;;;19.20;76.90;;;;;;5063127;28;20044;-81
2023/10/21 08:22:06;;;;;;;0.95;0.60;;;19.20;76.50;;;;;;5064696;28;20041;-82
2023/10/21 08:24:32;;;;;;;0.55;0.40;;;19.20;76.60;;;;;;5060437;28;20075;-82
2023/10/21 08:26:59;;;;;;;0.57;0.40;;;19.20;76.90;;;;;;5065341;28;20075;-83
2023/10/21 08:29:25;;;;;;;0.77;0.57;;;19.20;76.90;;;;;;5092810;28;20045;-82
2023/10/21 08:31:50;;;;;;;1.00;0.55;;;19.20;76.80;;;;;;5062040;28;20040;-83
2023/10/21 08:34:16;;;;;;;2.25;0.40;;;19.20;76.80;;;;;;5063229;28;20048;-82
2023/10/21 08:36:42;;;;;;;0.68;0.38;;;19.20;77.00;;;;;;5063110;28;20538;-82
2023/10/21 08:39:08;;;;;;;0.73;0.40;;;19.20;77.00;;;;;;5062189;28;20418;-83
2023/10/21 08:41:38;;;;;;;1.48;0.50;;;19.20;77.10;;;;;;5063085;28;20490;-82
2023/10/21 08:44:07;;;;;;;1.30;0.50;;;19.20;76.90;;;;;;5057876;28;20505;-82
2023/10/21 08:46:33;;;;;;;0.82;0.38;;;19.20;77.00;;;;;;5059715;28;20040;-83
2023/10/21 08:48:58;;;;;;;0.68;0.30;;;19.20;77.80;;;;;;5062419;28;20040;-84
2023/10/21 08:51:25;;;;;;;0.80;0.47;;;19.20;76.60;;;;;;5092433;28;20586;-86
2023/10/21 08:53:52;;;;;;;0.43;0.30;;;19.20;76.80;;;;;;5079248;28;20048;-87
2023/10/21 08:56:18;;;;;;;0.65;0.40;;;19.20;76.80;;;;;;5091100;28;20071;-83
2023/10/21 08:58:43;;;;;;;0.63;0.30;;;19.20;76.50;;;;;;5061139;28;20482;-84
2023/10/21 09:01:10;;;;;;;0.75;0.63;;;19.30;75.80;;;;;;5062395;28;20040;-83
2023/10/21 09:03:36;;;;;;;0.70;0.30;;;19.30;76.30;;;;;;5061493;28;20056;-82
2023/10/21 09:06:03;;;;;;;0.47;0.30;;;19.20;76.30;;;;;;4711219;28;10000583;-86
2023/10/21 09:08:32;;;;;;;0.30;0.30;;;19.30;76.70;;;;;;5060380;28;20316;-85
2023/10/21 09:10:59;;;;;;;2.38;0.22;;;19.20;76.40;;;;;;5061021;28;20029;-84
2023/10/21 09:13:29;;;;;;;0.35;0.30;;;19.30;76.20;;;;;;5052611;28;20040;-83
2023/10/21 09:15:55;;;;;;;0.77;0.52;;;19.30;76.50;;;;;;5053496;28;20418;-82
2023/10/21 09:18:21;;;;;;;0.60;0.35;;;19.30;76.40;;;;;;5090779;28;20276;-83
2023/10/21 09:20:49;;;;;;;0.52;0.50;;;19.30;76.50;;;;;;5061399;28;20046;-84
2023/10/21 09:23:17;;;;;;;0.85;0.50;;;19.30;77.00;;;;;;5059527;28;20037;-83
2023/10/21 09:25:51;;;;;;;0.68;0.40;;;19.30;76.50;;;;;;5053828;28;20055;-85
2023/10/21 09:28:23;;;;;;;;;;;19.30;76.80;;;;;;5052224;28;20398;-83
2023/10/21 09:30:58;;;;;;;1.02;0.57;;;19.30;77.80;;;;;;5053338;28;19916;-83
2023/10/21 09:33:25;;;;;;;2.30;0.65;;;19.30;77.80;;;;;;5056257;28;20040;-83
2023/10/21 09:36:01;;;;;;;2.35;0.80;;;19.30;77.10;;;;;;5059167;28;20037;-85
2023/10/21 09:38:27;;;;;;;1.40;0.65;;;19.30;76.90;;;;;;5060248;28;20032;-82
2023/10/21 09:40:53;;;;;;;0.93;0.65;;;19.30;76.30;;;;;;5046743;28;20043;-84
2023/10/21 09:43:18;;;;;;;0.95;0.60;;;19.30;76.10;;;;;;5061346;28;20072;-84
2023/10/21 09:45:45;;;;;;;1.48;1.10;;;19.30;76.00;;;;;;5062519;28;20044;-84
2023/10/21 09:48:11;;;;;;;1.42;0.60;;;19.30;76.00;;;;;;5077945;28;20427;-84
2023/10/21 09:50:38;;;;;;;1.65;0.70;;;19.40;76.10;;;;;;5063153;28;20895;-83
2023/10/21 09:53:12;;;;;;;0.70;0.50;;;19.30;76.20;;;;;;5064979;28;20036;-81
2023/10/21 09:55:39;;;;;;;0.65;0.57;;;19.30;76.50;;;;;;5061573;28;20040;-84
2023/10/21 09:58:06;;;;;;;1.25;0.80;;;19.40;76.70;;;;;;5062356;28;20048;-83
2023/10/21 10:00:32;;;;;;;1.05;0.50;;;19.40;76.40;;;;;;5061700;28;20049;-82
2023/10/21 10:02:57;;;;;;;2.13;1.00;;;19.40;76.10;;;;;;5082442;28;20036;-81
2023/10/21 10:05:23;;;;;;;0.70;0.70;;;19.40;76.00;;;;;;5062183;28;20131;-80
2023/10/21 10:07:49;;;;;;;1.48;0.50;;;19.40;75.90;;;;;;5067716;28;20037;-82
2023/10/21 10:10:19;;;;;;;0.60;0.50;;;19.40;76.20;;;;;;5067513;28;20055;-82
2023/10/21 10:13:06;;;;;;;0.82;0.50;;;19.40;76.10;;;;;;5063661;28;20039;-85
2023/10/21 10:15:32;;;;;;;2.15;0.47;;;19.50;76.20;;;;;;5063010;28;20047;-84
2023/10/21 10:18:03;;;;;;;2.03;0.50;;;19.40;76.20;;;;;;5062807;28;20032;-85
2023/10/21 10:20:28;;;;;;;1.10;0.60;;;19.40;76.50;;;;;;5066110;28;20086;-84
2023/10/21 10:23:02;;;;;;;2.25;0.70;;;19.40;77.50;;;;;;5063784;28;20037;-84
2023/10/21 10:25:32;;;;;;;1.42;0.65;;;19.40;76.80;;;;;;5060591;28;20061;-82
2023/10/21 10:28:05;;;;;;;0.88;0.70;;;19.40;76.20;;;;;;5067337;28;20088;-81
2023/10/21 10:30:34;;;;;;;0.60;0.43;;;19.40;76.50;;;;;;5051372;28;20044;-79
2023/10/21 10:33:17;;;;;;;1.00;0.55;;;19.40;77.20;;;;;;5085512;28;20395;-83
2023/10/21 10:35:47;;;;;;;2.53;0.57;;;19.40;77.30;;;;;;5065894;28;20033;-85
2023/10/21 10:38:25;;;;;;;1.85;1.00;;;19.40;77.50;;;;;;5063900;28;20024;-80
2023/10/21 10:41:20;;;;;;;0.82;0.52;;;19.50;77.70;;;;;;4709505;28;10000794;-81
2023/10/21 10:43:55;;;;;;;2.03;0.60;;;19.50;77.60;;;;;;5053877;28;20037;-79
2023/10/21 10:46:22;;;;;;;0.98;0.52;;;19.50;77.80;;;;;;5051336;28;20063;-79
2023/10/21 10:48:48;;;;;;;1.73;0.93;;;19.50;77.50;;;;;;5062579;28;20037;-81
2023/10/21 10:51:17;;;;;;;1.92;0.60;;;19.50;77.30;;;;;;5042583;28;20037;-81
2023/10/21 10:53:47;;;;;;;0.85;0.60;;;19.50;77.20;;;;;;5091009;28;20047;-81
2023/10/21 10:56:18;;;;;;;2.53;0.80;;;19.40;77.30;;;;;;5093690;28;20106;-82
2023/10/21 10:58:47;;;;;;;0.93;0.70;;;19.50;77.50;;;;;;5058156;28;20067;-82
2023/10/21 11:01:26;;;;;;;1.00;0.90;;;19.40;78.50;;;;;;5057172;28;20052;-81
2023/10/21 11:04:00;;;;;;;0.82;0.45;;;19.40;77.90;;;;;;5056219;28;20047;-81
2023/10/21 11:06:31;;;;;;;;;;;19.50;78.50;;;;;;5055993;28;20541;-81
2023/10/21 11:08:58;;;;;;;1.02;0.73;;;19.50;77.80;;;;;;5061541;28;19969;-81
2023/10/21 11:11:24;;;;;;;0.70;0.50;;;19.50;77.80;;;;;;5059491;28;20144;-80
2023/10/21 11:13:49;;;;;;;1.00;0.60;;;19.40;77.10;;;;;;5062108;28;20711;-81
2023/10/21 11:16:15;;;;;;;0.93;0.43;;;19.50;76.80;;;;;;5059349;28;20040;-83
2023/10/21 11:18:41;;;;;;;0.98;0.52;;;19.50;77.10;;;;;;4709289;28;10000383;-81
2023/10/21 11:21:07;;;;;;;1.60;0.60;;;19.40;76.60;;;;;;5060754;28;20142;-82
2023/10/21 11:23:34;;;;;;;0.70;0.60;;;19.50;76.50;;;;;;5060132;28;20076;-81
2023/10/21 11:26:00;;;;;;;0.60;0.50;;;19.50;76.60;;;;;;5057114;28;20052;-81
2023/10/21 11:28:26;;;;;;;0.50;0.40;;;19.50;76.30;;;;;;5059129;28;20051;-80
2023/10/21 11:30:51;;;;;;;0.60;0.45;;;19.50;76.90;;;;;;5058345;28;20040;-81
2023/10/21 11:33:17;;;;;;;3.90;0.70;;;19.50;76.10;;;;;;5040507;28;20549;-81
2023/10/21 11:35:44;;;;;;;2.50;0.70;;;19.50;76.30;;;;;;5060404;28;20052;-81
2023/10/21 11:38:12;;;;;;;0.70;0.50;;;19.50;76.40;;;;;;5056655;28;20048;-81
2023/10/21 11:40:38;;;;;;;1.23;0.40;;;19.50;76.60;;;;;;5063728;28;20102;-82
2023/10/21 11:43:06;;;;;;;0.40;0.40;;;19.50;76.60;;;;;;5065582;28;20044;-82
2023/10/21 11:45:32;;;;;;;0.60;0.30;;;19.50;76.70;;;;;;5061622;28;20052;-81
2023/10/21 11:47:59;;;;;;;1.05;0.30;;;19.50;77.30;;;;;;5065078;28;20048;-82
2023/10/21 11:50:25;;;;;;;2.58;0.50;;;19.50;76.90;;;;;;5091265;28;20105;-81
2023/10/21 11:52:51;;;;;;;1.02;0.50;;;19.50;77.50;;;;;;5045476;28;20098;-82
2023/10/21 11:55:34;;;;;;;2.33;0.52;;;19.50;77.90;;;;;;5060000;28;20033;-82
2023/10/21 12:04:28;;;;;;;0.82;0.60;;;19.50;77.10;;;;;;4955606;28;20653;-83
2023/10/21 12:20:46;;;;;;;0.85;0.60;;;19.50;78.80;;;;;;4969746;28;20612;-81
2023/10/21 12:34:20;;;;;;;0.65;0.40;;;19.50;78.10;;;;;;4982770;28;20046;-79
2023/10/21 12:39:37;;;;;;;0.45;0.40;;;19.50;78.20;;;;;;5060923;28;20052;-78
2023/10/21 12:42:18;;;;;;;0.63;0.40;;;19.50;78.00;;;;;;5063740;28;20051;-80
2023/10/21 12:44:51;;;;;;;1.48;0.30;;;19.50;77.90;;;;;;5064279;28;20045;-79
2023/10/21 12:47:17;;;;;;;0.25;0.17;;;19.40;77.80;;;;;;5060606;28;20075;-80
2023/10/21 12:49:43;;;;;;;0.50;0.30;;;19.50;77.70;;;;;;5061111;28;20028;-80
2023/10/21 12:52:11;;;;;;;1.08;0.60;;;19.50;77.70;;;;;;5061118;28;20044;-79
2023/10/21 12:54:36;;;;;;;0.40;0.30;;;19.50;77.80;;;;;;5028704;28;20021;-79
2023/10/21 12:57:02;;;;;;;1.13;0.40;;;19.50;77.70;;;;;;5063796;28;20098;-79
2023/10/21 12:59:28;;;;;;;0.50;0.20;;;19.50;77.80;;;;;;5060168;28;20101;-77
2023/10/21 13:01:54;;;;;;;0.85;0.30;;;19.50;77.60;;;;;;5061488;28;20129;-79
2023/10/21 13:04:19;;;;;;;1.60;0.45;;;19.50;77.70;;;;;;5061558;28;20552;-80
2023/10/21 13:06:45;;;;;;;1.08;0.30;;;19.50;77.50;;;;;;5060670;28;20127;-79
2023/10/21 13:09:29;;;;;;;0.40;0.10;;;19.50;77.50;;;;;;5064287;28;20029;-79
2023/10/21 13:11:55;;;;;;;0.20;0.20;;;19.40;77.40;;;;;;5064396;28;20045;-79
2023/10/21 13:14:29;;;;;;;2.00;0.60;;;19.40;77.40;;;;;;5094624;28;20039;-80
2023/10/21 13:16:55;;;;;;;0.43;0.30;;;19.50;77.30;;;;;;5058890;28;20037;-80
2023/10/21 13:19:21;;;;;;;0.57;0.40;;;19.50;77.30;;;;;;5061634;28;20025;-77
2023/10/21 13:21:48;;;;;;;1.00;0.30;;;19.50;77.10;;;;;;5062909;28;20045;-79